N818TW KLAL-KLAL
Flight info
| Callsign | N818TW |
|---|---|
| Flight time | 0h 19m |
| Altitude | VFR |
| Route | VFF |
| Aircraft | PA24/L-DOV/C |
Departure
| Time | 2026-04-22 00:25 |
|---|---|
| Airport | Lakeland Linder International Airport (KLAL) |
Arrival
| Time | 2026-04-22 00:45 |
|---|---|
| Airport | Lakeland Linder International Airport (KLAL) |
| Time | Latitude | Longitude | Altitude | Speed | Heading |
|---|---|---|---|---|---|
| 2026-04-22 00:21 | 27.98855 | -82.03332 | 135 ft | 0 kts | 11° |
| 2026-04-22 00:22 | 27.98861 | -82.03331 | 135 ft | 6 kts | 2° |
| 2026-04-22 00:23 | 27.98921 | -82.03292 | 135 ft | 12 kts | 69° |
| 2026-04-22 00:23 | 27.98924 | -82.03274 | 135 ft | 0 kts | 86° |
| 2026-04-22 00:24 | 27.98923 | -82.02976 | 139 ft | 75 kts | 86° |
| 2026-04-22 00:24 | 27.98951 | -82.02310 | 325 ft | 87 kts | 77° |
| 2026-04-22 00:25 | 27.99061 | -82.01593 | 486 ft | 100 kts | 75° |
| 2026-04-22 00:25 | 27.99194 | -82.00809 | 625 ft | 102 kts | 73° |
| 2026-04-22 00:25 | 27.99418 | -82.00023 | 729 ft | 107 kts | 65° |
| 2026-04-22 00:25 | 27.99446 | -81.99198 | 815 ft | 112 kts | 104° |
| 2026-04-22 00:26 | 27.99143 | -81.98387 | 968 ft | 110 kts | 105° |
| 2026-04-22 00:26 | 27.98995 | -81.97556 | 1076 ft | 106 kts | 85° |
| 2026-04-22 00:26 | 27.98971 | -81.96759 | 1227 ft | 98 kts | 88° |
| 2026-04-22 00:26 | 27.98901 | -81.96023 | 1402 ft | 91 kts | 88° |
| 2026-04-22 00:27 | 27.98883 | -81.95289 | 1496 ft | 93 kts | 84° |
| 2026-04-22 00:27 | 27.98905 | -81.94569 | 1653 ft | 92 kts | 79° |
| 2026-04-22 00:27 | 27.99055 | -81.93861 | 1756 ft | 93 kts | 64° |
| 2026-04-22 00:27 | 27.99468 | -81.93300 | 1846 ft | 95 kts | 37° |
| 2026-04-22 00:28 | 28.00062 | -81.92947 | 1926 ft | 99 kts | 32° |
| 2026-04-22 00:28 | 28.00703 | -81.92652 | 2016 ft | 99 kts | 31° |
| 2026-04-22 00:28 | 28.01341 | -81.92339 | 2067 ft | 101 kts | 32° |
| 2026-04-22 00:28 | 28.01973 | -81.92000 | 2136 ft | 99 kts | 36° |
| 2026-04-22 00:29 | 28.02532 | -81.91577 | 2238 ft | 95 kts | 46° |
| 2026-04-22 00:29 | 28.02952 | -81.91009 | 2315 ft | 94 kts | 58° |
| 2026-04-22 00:29 | 28.03324 | -81.90398 | 2387 ft | 94 kts | 55° |
| 2026-04-22 00:29 | 28.03754 | -81.89836 | 2454 ft | 95 kts | 49° |
| 2026-04-22 00:30 | 28.04281 | -81.89367 | 2511 ft | 98 kts | 38° |
| 2026-04-22 00:30 | 28.04874 | -81.88975 | 2587 ft | 99 kts | 42° |
| 2026-04-22 00:30 | 28.05419 | -81.88524 | 2665 ft | 96 kts | 44° |
| 2026-04-22 00:30 | 28.05962 | -81.88086 | 2717 ft | 97 kts | 40° |
| 2026-04-22 00:31 | 28.06546 | -81.87644 | 2690 ft | 106 kts | 42° |
| 2026-04-22 00:31 | 28.07172 | -81.87054 | 2655 ft | 126 kts | 48° |
| 2026-04-22 00:31 | 28.07810 | -81.86358 | 2686 ft | 124 kts | 48° |
| 2026-04-22 00:31 | 28.08398 | -81.85708 | 2771 ft | 114 kts | 51° |
| 2026-04-22 00:32 | 28.08909 | -81.85032 | 2795 ft | 114 kts | 53° |
| 2026-04-22 00:32 | 28.09406 | -81.84311 | 2733 ft | 119 kts | 58° |
| 2026-04-22 00:32 | 28.09871 | -81.83503 | 2642 ft | 125 kts | 60° |
| 2026-04-22 00:32 | 28.10330 | -81.82696 | 2541 ft | 121 kts | 59° |
| 2026-04-22 00:33 | 28.10816 | -81.81900 | 2389 ft | 128 kts | 55° |
| 2026-04-22 00:33 | 28.11227 | -81.81398 | 2345 ft | 135 kts | 46° |
| 2026-04-22 00:33 | 28.12109 | -81.80906 | 2198 ft | 150 kts | 20° |
| 2026-04-22 00:33 | 28.13532 | -81.80637 | 2034 ft | 161 kts | 14° |
| 2026-04-22 00:34 | 28.14280 | -81.80541 | 1900 ft | 164 kts | 13° |
| 2026-04-22 00:34 | 28.15421 | -81.80434 | 1742 ft | 166 kts | 10° |
| 2026-04-22 00:34 | 28.16480 | -81.80383 | 1624 ft | 140 kts | 8° |
| 2026-04-22 00:34 | 28.17172 | -81.80975 | 1727 ft | 146 kts | 290° |
| 2026-04-22 00:35 | 28.16705 | -81.82049 | 1291 ft | 168 kts | 214° |
| 2026-04-22 00:35 | 28.15822 | -81.82470 | 1356 ft | 118 kts | 180° |
| 2026-04-22 00:35 | 28.15043 | -81.82545 | 1654 ft | 110 kts | 172° |
| 2026-04-22 00:35 | 28.14217 | -81.82536 | 1695 ft | 125 kts | 168° |
| 2026-04-22 00:36 | 28.13315 | -81.82494 | 1703 ft | 132 kts | 169° |
| 2026-04-22 00:36 | 28.12382 | -81.82623 | 1699 ft | 139 kts | 186° |
| 2026-04-22 00:36 | 28.11469 | -81.83060 | 1673 ft | 147 kts | 202° |
| 2026-04-22 00:36 | 28.10688 | -81.83798 | 1726 ft | 148 kts | 225° |
| 2026-04-22 00:37 | 28.10092 | -81.84802 | 1671 ft | 156 kts | 237° |
| 2026-04-22 00:37 | 28.09533 | -81.85846 | 1693 ft | 154 kts | 239° |
| 2026-04-22 00:37 | 28.09042 | -81.86934 | 1562 ft | 153 kts | 243° |
| 2026-04-22 00:37 | 28.08664 | -81.88016 | 1461 ft | 142 kts | 255° |
| 2026-04-22 00:38 | 28.08471 | -81.89071 | 1366 ft | 135 kts | 263° |
| 2026-04-22 00:38 | 28.08317 | -81.90024 | 1169 ft | 110 kts | 267° |
| 2026-04-22 00:38 | 28.08195 | -81.90919 | 1140 ft | 117 kts | 265° |
| 2026-04-22 00:38 | 28.08064 | -81.91813 | 1156 ft | 117 kts | 264° |
| 2026-04-22 00:39 | 28.07901 | -81.92736 | 1173 ft | 117 kts | 262° |
| 2026-04-22 00:39 | 28.07744 | -81.93554 | 1135 ft | 104 kts | 263° |
| 2026-04-22 00:39 | 28.07616 | -81.94303 | 1120 ft | 100 kts | 262° |
| 2026-04-22 00:39 | 28.07472 | -81.95061 | 1132 ft | 103 kts | 261° |
| 2026-04-22 00:40 | 28.07287 | -81.95920 | 1125 ft | 122 kts | 261° |
| 2026-04-22 00:40 | 28.07099 | -81.96903 | 1121 ft | 126 kts | 262° |
| 2026-04-22 00:40 | 28.06951 | -81.97847 | 1162 ft | 122 kts | 264° |
| 2026-04-22 00:40 | 28.06760 | -81.98834 | 1171 ft | 137 kts | 261° |
| 2026-04-22 00:41 | 28.06387 | -81.99815 | 1057 ft | 124 kts | 240° |
| 2026-04-22 00:41 | 28.05955 | -82.00514 | 957 ft | 96 kts | 232° |
| 2026-04-22 00:41 | 28.05582 | -82.01114 | 988 ft | 97 kts | 232° |
| 2026-04-22 00:41 | 28.04995 | -82.01533 | 1154 ft | 108 kts | 173° |
| 2026-04-22 00:42 | 28.04227 | -82.01479 | 1182 ft | 112 kts | 168° |
| 2026-04-22 00:42 | 28.03438 | -82.01549 | 1148 ft | 111 kts | 175° |
| 2026-04-22 00:42 | 28.02680 | -82.01650 | 1176 ft | 111 kts | 173° |
| 2026-04-22 00:42 | 28.01904 | -82.01713 | 1174 ft | 113 kts | 173° |
| 2026-04-22 00:43 | 28.01095 | -82.01767 | 1123 ft | 116 kts | 173° |
| 2026-04-22 00:43 | 28.00523 | -82.02231 | 903 ft | 112 kts | 239° |
| 2026-04-22 00:43 | 28.00223 | -82.03033 | 834 ft | 109 kts | 252° |
| 2026-04-22 00:43 | 27.99991 | -82.03794 | 743 ft | 94 kts | 257° |
| 2026-04-22 00:44 | 27.99763 | -82.04400 | 776 ft | 77 kts | 202° |
| 2026-04-22 00:44 | 27.99209 | -82.04144 | 569 ft | 95 kts | 128° |
| 2026-04-22 00:44 | 27.99020 | -82.03482 | 355 ft | 89 kts | 80° |
| 2026-04-22 00:44 | 27.99034 | -82.02842 | 238 ft | 72 kts | 84° |
| 2026-04-22 00:45 | 27.99039 | -82.02304 | 197 ft | 65 kts | 85° |
| 2026-04-22 00:45 | 27.99032 | -82.01838 | 155 ft | 54 kts | 81° |
| 2026-04-22 00:45 | 27.99046 | -82.01478 | 138 ft | 47 kts | 92° |
| 2026-04-22 00:45 | 27.99041 | -82.01165 | 139 ft | 31 kts | 90° |
| 2026-04-22 00:46 | 27.99044 | -82.00966 | 143 ft | 21 kts | 89° |
| 2026-04-22 00:46 | 27.99041 | -82.00831 | 144 ft | 14 kts | 91° |
| 2026-04-22 00:46 | 27.99026 | -82.00782 | 145 ft | 0 kts | 129° |
| 2026-04-22 00:47 | 27.99025 | -82.00781 | 144 ft | 5 kts | 129° |
| 2026-04-22 00:48 | 27.98963 | -82.00769 | 143 ft | 18 kts | 184° |
| 2026-04-22 00:48 | 27.98831 | -82.00757 | 140 ft | 26 kts | 173° |
| 2026-04-22 00:48 | 27.98728 | -82.00812 | 138 ft | 16 kts | 283° |
| 2026-04-22 00:48 | 27.98736 | -82.00926 | 138 ft | 14 kts | 272° |
| 2026-04-22 00:49 | 27.98730 | -82.01019 | 140 ft | 8 kts | 270° |
| 2026-04-22 00:49 | 27.98732 | -82.01112 | 140 ft | 12 kts | 270° |
| 2026-04-22 00:49 | 27.98733 | -82.01217 | 139 ft | 16 kts | 270° |
| 2026-04-22 00:49 | 27.98682 | -82.01279 | 140 ft | 12 kts | 201° |
| 2026-04-22 00:50 | 27.98651 | -82.01293 | 139 ft | 0 kts | 198° |